createdAt,value
2018-07-16T00:01:04.786Z,20.87
2018-07-16T00:03:36.015Z,20.85
2018-07-16T00:06:05.347Z,20.85
2018-07-16T00:08:34.661Z,20.83
2018-07-16T00:11:03.924Z,20.82
2018-07-16T00:13:33.783Z,20.80
2018-07-16T00:16:03.314Z,20.79
2018-07-16T00:18:34.240Z,20.78
2018-07-16T00:21:04.658Z,20.78
2018-07-16T00:23:34.870Z,20.76
2018-07-16T00:26:04.637Z,20.74
2018-07-16T00:28:33.946Z,20.73
2018-07-16T00:31:03.653Z,20.73
2018-07-16T00:33:32.927Z,20.72
2018-07-16T00:36:02.325Z,20.70
2018-07-16T00:38:32.154Z,20.69
2018-07-16T00:41:01.870Z,20.68
2018-07-16T00:43:31.790Z,20.68
2018-07-16T00:46:01.217Z,20.67
2018-07-16T00:48:30.515Z,20.66
2018-07-16T00:50:59.590Z,20.63
2018-07-16T00:53:29.641Z,20.63
2018-07-16T00:55:59.522Z,20.63
2018-07-16T00:58:28.581Z,20.61
2018-07-16T01:00:57.629Z,20.60
2018-07-16T01:03:26.695Z,20.58
2018-07-16T01:05:55.758Z,20.58
2018-07-16T01:08:24.826Z,20.57
2018-07-16T01:10:54.507Z,20.56
2018-07-16T01:13:23.569Z,20.57
2018-07-16T01:15:52.642Z,20.56
2018-07-16T01:18:22.165Z,20.53
2018-07-16T01:20:51.574Z,20.52
2018-07-16T01:23:20.810Z,20.52
2018-07-16T01:25:50.170Z,20.50
2018-07-16T01:28:19.729Z,20.49
2018-07-16T01:30:49.258Z,20.48
2018-07-16T01:33:18.680Z,20.48
2018-07-16T01:35:48.119Z,20.46
2018-07-16T01:38:18.038Z,20.46
2018-07-16T01:40:48.014Z,20.44
2018-07-16T01:43:17.437Z,20.43
2018-07-16T01:45:47.106Z,20.42
2018-07-16T01:48:16.359Z,20.41
2018-07-16T01:50:45.738Z,20.40
2018-07-16T01:53:15.059Z,20.40
2018-07-16T01:55:45.462Z,20.38
2018-07-16T01:58:15.228Z,20.39
2018-07-16T02:00:56.214Z,20.37
2018-07-16T02:03:26.591Z,20.36
2018-07-16T02:05:55.988Z,20.36
2018-07-16T02:08:26.013Z,20.35
2018-07-16T02:10:56.063Z,20.34
2018-07-16T02:13:25.845Z,20.33
2018-07-16T02:15:55.248Z,20.33
2018-07-16T02:18:25.594Z,20.31
2018-07-16T02:20:54.813Z,20.31
2018-07-16T02:23:24.122Z,20.30
2018-07-16T02:25:53.864Z,20.29
2018-07-16T02:28:23.358Z,20.28
2018-07-16T02:30:52.672Z,20.27
2018-07-16T02:33:21.962Z,20.27
2018-07-16T02:35:52.017Z,20.26
2018-07-16T02:38:21.728Z,20.25
2018-07-16T02:40:51.119Z,20.24
2018-07-16T02:43:20.422Z,20.23
2018-07-16T02:45:50.237Z,20.22
2018-07-16T02:48:20.315Z,20.21
2018-07-16T02:50:49.522Z,20.21
2018-07-16T02:53:20.293Z,20.20
2018-07-16T02:55:50.820Z,20.18
2018-07-16T02:58:20.038Z,20.17
2018-07-16T03:00:49.747Z,20.16
2018-07-16T03:03:19.917Z,20.15
2018-07-16T03:05:49.422Z,20.14
2018-07-16T03:08:19.467Z,20.14
2018-07-16T03:10:50.153Z,20.13
2018-07-16T03:13:19.972Z,20.12
2018-07-16T03:15:49.329Z,20.12
2018-07-16T03:18:19.141Z,20.10
2018-07-16T03:20:51.022Z,20.10
2018-07-16T03:23:20.432Z,20.09
2018-07-16T03:28:17.289Z,20.07
2018-07-16T03:30:46.788Z,20.07
2018-07-16T03:33:16.127Z,20.06
2018-07-16T03:35:45.349Z,20.05
2018-07-16T03:38:14.891Z,20.06
2018-07-16T03:40:44.300Z,20.04
2018-07-16T03:43:13.593Z,20.02
2018-07-16T03:45:44.040Z,20.03
2018-07-16T03:48:13.491Z,20.01
2018-07-16T03:50:42.892Z,20.01
2018-07-16T03:53:12.243Z,20.00
2018-07-16T03:55:41.682Z,20.00
2018-07-16T03:58:10.996Z,19.99
2018-07-16T04:00:40.244Z,19.99
2018-07-16T04:03:09.599Z,19.97
2018-07-16T04:05:38.939Z,19.96
2018-07-16T04:08:08.230Z,19.97
2018-07-16T04:10:41.965Z,19.95
2018-07-16T04:13:11.306Z,19.95
2018-07-16T04:15:40.527Z,19.95
2018-07-16T04:18:15.722Z,19.93
2018-07-16T04:20:45.118Z,19.93
2018-07-16T04:23:14.571Z,19.92
2018-07-16T04:25:44.412Z,19.92
2018-07-16T04:28:14.476Z,19.90
2018-07-16T04:30:45.560Z,19.91
2018-07-16T04:33:14.864Z,19.90
2018-07-16T04:35:44.767Z,19.90
2018-07-16T04:38:14.634Z,19.90
2018-07-16T04:40:44.235Z,19.89
2018-07-16T04:43:14.409Z,19.88
2018-07-16T04:45:44.363Z,19.88
2018-07-16T04:48:13.732Z,19.88
2018-07-16T04:50:46.286Z,19.87
2018-07-16T04:53:16.913Z,19.87
2018-07-16T04:55:47.204Z,19.87
2018-07-16T04:58:16.625Z,19.86
2018-07-16T05:00:45.927Z,19.87
2018-07-16T05:03:15.470Z,19.88
2018-07-16T05:05:45.551Z,19.87
2018-07-16T05:08:14.890Z,19.87
2018-07-16T05:10:44.272Z,19.85
2018-07-16T05:13:14.834Z,19.87
2018-07-16T05:15:44.158Z,19.86
2018-07-16T05:18:14.281Z,19.87
2018-07-16T05:20:43.700Z,19.87
2018-07-16T05:23:13.015Z,19.87
2018-07-16T05:25:42.291Z,19.95
2018-07-16T05:28:12.614Z,19.96
2018-07-16T05:30:42.004Z,19.95
2018-07-16T05:33:11.649Z,19.97
2018-07-16T05:35:41.357Z,19.98
2018-07-16T05:38:10.889Z,19.98
2018-07-16T05:40:40.208Z,20.00
2018-07-16T05:43:09.613Z,19.99
2018-07-16T05:45:39.231Z,20.01
2018-07-16T05:48:08.718Z,20.03
2018-07-16T05:50:38.199Z,20.03
2018-07-16T05:53:07.691Z,20.02
2018-07-16T05:55:37.262Z,20.03
2018-07-16T05:58:06.493Z,20.03
2018-07-16T06:00:36.967Z,20.04
2018-07-16T06:03:06.836Z,20.04
2018-07-16T06:05:36.980Z,20.05
2018-07-16T06:08:06.477Z,20.06
2018-07-16T06:10:39.087Z,20.06
2018-07-16T06:13:08.342Z,20.07
2018-07-16T06:15:39.268Z,20.07
2018-07-16T06:18:09.404Z,20.08
2018-07-16T06:20:40.250Z,20.07
2018-07-16T06:23:09.645Z,20.09
2018-07-16T06:25:40.415Z,20.10
2018-07-16T06:28:09.658Z,20.10
2018-07-16T06:30:39.075Z,20.11
2018-07-16T06:33:10.430Z,20.11
2018-07-16T06:35:39.690Z,20.11
2018-07-16T06:47:08.597Z,20.13
2018-07-16T06:49:38.012Z,20.13
2018-07-16T06:52:08.383Z,20.14
2018-07-16T06:54:38.429Z,20.14
2018-07-16T06:57:08.938Z,20.16
2018-07-16T06:59:38.264Z,20.16
2018-07-16T07:02:07.443Z,20.15
2018-07-16T07:04:37.781Z,20.16
2018-07-16T07:07:09.564Z,20.17
2018-07-16T07:09:46.214Z,20.18
2018-07-16T07:12:22.287Z,20.20
2018-07-16T07:14:51.645Z,20.20
2018-07-16T07:17:21.824Z,20.21
2018-07-16T07:19:52.920Z,20.22
2018-07-16T07:22:22.187Z,20.23
2018-07-16T07:24:58.920Z,20.25
2018-07-16T07:27:30.705Z,20.24
2018-07-16T07:30:02.053Z,20.25
2018-07-16T07:32:32.869Z,20.26
2018-07-16T07:35:03.483Z,20.26
2018-07-16T07:37:33.807Z,20.26
2018-07-16T07:40:03.706Z,20.26
2018-07-16T07:42:34.169Z,20.26
2018-07-16T07:45:03.620Z,20.27
2018-07-16T07:47:36.283Z,20.27
2018-07-16T07:50:06.907Z,20.28
2018-07-16T07:52:37.002Z,20.28
2018-07-16T07:55:08.039Z,20.28
2018-07-16T07:57:38.231Z,20.30
2018-07-16T08:00:11.927Z,20.31
2018-07-16T08:02:43.249Z,20.31
2018-07-16T08:05:13.314Z,20.28
2018-07-16T08:07:48.950Z,20.27
2018-07-16T08:10:22.332Z,20.28
2018-07-16T08:12:53.710Z,20.29
2018-07-16T08:15:23.896Z,20.31
2018-07-16T08:17:53.382Z,20.33
2018-07-16T08:20:25.215Z,20.34
2018-07-16T08:22:55.851Z,20.35
2018-07-16T08:25:25.312Z,20.36
2018-07-16T08:27:55.582Z,20.37
2018-07-16T08:30:25.686Z,20.37
2018-07-16T08:32:54.772Z,20.38
2018-07-16T08:35:24.687Z,20.39
2018-07-16T08:37:55.432Z,20.39
2018-07-16T08:40:25.745Z,20.40
2018-07-16T08:42:56.596Z,20.40
2018-07-16T08:45:26.078Z,20.42
2018-07-16T08:47:57.506Z,20.41
2018-07-16T08:50:28.196Z,20.43
2018-07-16T08:52:57.370Z,20.44
2018-07-16T08:55:26.529Z,20.44
2018-07-16T08:57:56.231Z,20.46
2018-07-16T09:00:25.414Z,20.47
2018-07-16T09:02:56.610Z,20.47
2018-07-16T09:05:28.584Z,20.48
2018-07-16T09:08:01.161Z,20.50
2018-07-16T09:10:30.268Z,20.50
2018-07-16T09:13:02.937Z,20.51
2018-07-16T09:15:32.575Z,20.52
2018-07-16T09:18:02.312Z,20.53
2018-07-16T09:20:35.203Z,20.54
2018-07-16T09:23:06.263Z,20.53
2018-07-16T09:25:35.405Z,20.54
2018-07-16T09:28:05.476Z,20.57
2018-07-16T09:30:34.598Z,20.57
2018-07-16T09:33:06.358Z,20.58
2018-07-16T09:35:37.650Z,20.59
2018-07-16T09:38:07.691Z,20.59
2018-07-16T09:40:38.467Z,20.60
2018-07-16T09:43:07.950Z,20.61
2018-07-16T09:45:37.396Z,20.60
2018-07-16T09:48:11.478Z,20.62
2018-07-16T09:50:40.618Z,20.63
2018-07-16T09:53:13.351Z,20.64
2018-07-16T09:58:06.894Z,20.64
2018-07-16T10:00:40.599Z,20.64
2018-07-16T10:03:10.246Z,20.66
2018-07-16T10:05:40.077Z,20.68
2018-07-16T10:08:09.505Z,20.68
2018-07-16T10:10:40.764Z,20.69
2018-07-16T10:13:10.506Z,20.70
2018-07-16T10:15:39.664Z,20.70
2018-07-16T10:18:12.512Z,20.70
2018-07-16T10:20:42.315Z,20.71
2018-07-16T10:23:12.868Z,20.72
2018-07-16T10:25:44.913Z,20.72
2018-07-16T10:28:16.254Z,20.73
2018-07-16T10:30:46.898Z,20.74
2018-07-16T10:33:19.780Z,20.75
2018-07-16T10:35:48.822Z,20.76
2018-07-16T10:38:18.012Z,20.76
2018-07-16T10:40:48.137Z,20.74
2018-07-16T10:43:17.507Z,20.74
2018-07-16T10:45:46.558Z,20.75
2018-07-16T10:48:16.266Z,20.78
2018-07-16T10:50:46.395Z,20.79
2018-07-16T10:53:15.848Z,20.79
2018-07-16T10:55:46.612Z,20.81
2018-07-16T10:58:16.915Z,20.81
2018-07-16T11:00:46.654Z,20.82
2018-07-16T11:03:15.755Z,20.83
2018-07-16T11:05:49.012Z,20.85
2018-07-16T11:08:18.415Z,20.83
2018-07-16T11:10:49.947Z,20.82
2018-07-16T11:13:19.671Z,20.82
2018-07-16T11:15:50.470Z,20.83
2018-07-16T11:18:21.634Z,20.83
2018-07-16T11:20:52.471Z,20.86
2018-07-16T11:23:25.213Z,20.84
2018-07-16T11:25:55.211Z,20.85
2018-07-16T11:28:28.276Z,20.86
2018-07-16T11:30:59.626Z,20.85
2018-07-16T11:33:30.478Z,20.86
2018-07-16T11:36:00.244Z,20.86
2018-07-16T11:38:32.143Z,20.86
2018-07-16T11:41:04.254Z,20.86
2018-07-16T11:43:36.071Z,20.88
2018-07-16T11:46:05.233Z,20.88
2018-07-16T11:48:36.887Z,20.89
2018-07-16T11:51:12.624Z,20.93
2018-07-16T11:53:44.539Z,20.95
2018-07-16T11:56:15.910Z,20.96
2018-07-16T11:58:45.965Z,20.97
2018-07-16T12:01:16.078Z,20.97
2018-07-16T12:03:48.759Z,20.99
2018-07-16T12:06:25.970Z,21.00
2018-07-16T12:08:56.242Z,21.00
2018-07-16T12:11:25.387Z,21.00
2018-07-16T12:13:56.286Z,20.99
2018-07-16T12:16:26.543Z,21.02
2018-07-16T12:18:55.644Z,21.01
2018-07-16T12:21:24.910Z,21.02
2018-07-16T12:23:57.117Z,21.04
2018-07-16T12:26:26.249Z,21.05
2018-07-16T12:29:06.620Z,21.05
2018-07-16T12:31:37.246Z,21.06
2018-07-16T12:34:06.374Z,21.07
2018-07-16T12:36:36.888Z,21.09
2018-07-16T12:39:06.966Z,21.09
2018-07-16T12:41:37.488Z,21.10
2018-07-16T12:44:07.597Z,21.11
2018-07-16T12:46:37.099Z,21.11
2018-07-16T12:49:09.593Z,21.12
2018-07-16T12:51:42.269Z,21.14
2018-07-16T12:54:11.716Z,21.13
2018-07-16T12:56:41.963Z,21.12
2018-07-16T12:59:12.156Z,21.13
2018-07-16T22:20:36.766Z,20.77
2018-07-16T22:26:07.048Z,20.75
2018-07-16T22:28:42.253Z,20.74
2018-07-16T22:34:08.678Z,20.72
2018-07-16T22:36:44.569Z,20.71
2018-07-16T22:39:22.044Z,20.70
2018-07-16T22:42:01.017Z,20.69
2018-07-16T22:44:37.131Z,20.68
2018-07-16T22:47:10.497Z,20.67
2018-07-16T22:49:43.797Z,20.67
2018-07-16T22:52:18.158Z,20.65
2018-07-16T22:54:53.336Z,20.64
2018-07-16T22:57:23.713Z,20.63
2018-07-16T22:59:55.404Z,20.62
2018-07-16T23:02:29.064Z,20.61
2018-07-16T23:05:02.610Z,20.60
2018-07-16T23:07:36.407Z,20.59
2018-07-16T23:10:15.022Z,20.58
2018-07-16T23:12:48.121Z,20.57
2018-07-16T23:15:19.173Z,20.57
2018-07-16T23:17:56.939Z,20.57
2018-07-16T23:20:30.711Z,20.55
2018-07-16T23:23:02.897Z,20.54
2018-07-16T23:25:36.095Z,20.52
2018-07-16T23:28:06.097Z,20.52
2018-07-16T23:30:40.855Z,20.50
2018-07-16T23:33:12.419Z,20.49
2018-07-16T23:35:43.583Z,20.48
2018-07-16T23:38:17.091Z,20.49
2018-07-16T23:40:52.029Z,20.47
2018-07-16T23:43:25.172Z,20.46
2018-07-16T23:45:55.626Z,20.44
2018-07-16T23:48:37.641Z,20.44
2018-07-16T23:51:09.732Z,20.44
2018-07-16T23:53:40.562Z,20.42
2018-07-16T23:56:10.136Z,20.41
2018-07-16T23:58:40.235Z,20.41
